Hauptseite
METAR-TAF:

METAR-TAF

Flughäfen :

London Oxford Airport

Oxford, England

Breite: 51-50-13N, Länge: 1-19-12W, Höhe: 82 m

Beobachtung

Neuester Wetterbericht von vor 8 Stunden und 54 Minuten, um 19:50 UTC
Wind 4 kt aus West/Südwest
Temperatur 4°C
Luftfeuchtigkeit 100%
Luftdruck 1007 hPa
Sichtweite 10 km oder mehr
Durchbrochene Bewölkung in der Höhe von 4600 ft

METAR: EGTK 161950Z 24004KT 9999 BKN046 04/04 Q1007

Zeit: 04:44 (04:44 UTC)

Prognose

Neuester Wetterbericht von vor 11 Stunden und 46 Minuten, um 16:58 UTC
Gültige Prognose vom 16 um 18 UTC bis 16 um 22 UTC
Wind 3 kt aus Süd/Südwest
Sichtweite 10 km oder mehr
Aufgelockert bewölkt in der Höhe von 4000 ft
Wahrscheinlichkeit 30% :
Zeitweise
vom 16 um 18 UTC bis 16 um 22 UTC
Sichtweite: 6000 m

TAF: EGTK 161658Z 1618/1622 20003KT 9999 SCT040 PROB30 TEMPO 1618/1622 6000

Wetterbeobachtungen und Prognosen von mehr als 4000 Flughäfen (METAR und TAF Bericht).

Die verfügbaren Stationen werden durch gelbe und rote Markierungen auf der Karte dargestellt.

Führen Sie die Maus auf sie, um den Namen der Station zu sehen.

Darauf klicken, um die Beobachtung von Wetterbeobachtungen und Prognosen zu sehen.

Um die Karte zu ändern : klicken Sie auf den grünen Tasten mit einem schwarzen Kreuz Zum Vergrößern, auf den grünen Button mit einem Gedankenstrich zu verkleinern, oder auf die grünen Pfeile für benachbarte Karten.


METAR-TAF: